Saint Charles, South Dakota
Current Conditions -  °F | °C
As of 7:53 AM on Thursday 23 Oct 2014 (Local Time) from KICR Reporting Station
Clear Clear  
Wind Chill: 44°   Ceiling: Unl
Heat Index: 49°   Visibility: 10mi
Dew Point: 43°   Wind: 13mph
Humidity: 80%   Direction: 210°SSW
Pressure: 29.99"   Gusts: NA
Location:  43.09°N, 99.1°W
Report Text: KICR 231253Z AUTO 21011KT 10SM CLR 09/06 A2999 RMK AO2 SLP158 T00940061
Loading
Personal Weather Stations






























Interactive Weather Map New forecast layout! Learn more

10-Day Weather Forecast

Advertisements
Track Severe Weather on mobile